Time;durP1;ratioP1;P1;durP2;ratioP2;P2;SDS_P1;SDS_P2;PMS_P1;PMS_P2;Temp;Humidity;BMP_temperature;BMP_pressure;BME280_temperature;BME280_humidity;BME280_pressure;Samples;Min_cycle;Max_cycle;Signal;HPM_P1;HPM_P2
2023/10/31 00:01:46;;;;;;;6.28;2.13;;;;;;;10.32;100.00;95770.25;5050182;28;20051;-65
2023/10/31 00:04:12;;;;;;;2.70;0.70;;;;;;;10.37;100.00;95770.97;5049591;28;20047;-65
2023/10/31 00:06:39;;;;;;;5.80;1.80;;;;;;;10.29;100.00;95777.03;5049456;28;20033;-65
2023/10/31 00:09:06;;;;;;;3.40;1.05;;;;;;;10.23;100.00;95784.41;5045747;28;20041;-65
2023/10/31 00:11:32;;;;;;;2.15;0.45;;;;;;;10.27;100.00;95781.91;5036672;28;20041;-65
2023/10/31 00:13:59;;;;;;;2.10;0.80;;;;;;;10.15;100.00;95776.94;5045286;28;20041;-65
2023/10/31 00:16:26;;;;;;;1.80;0.50;;;;;;;10.04;100.00;95775.41;5045176;28;20078;-65
2023/10/31 00:18:52;;;;;;;2.83;0.60;;;;;;;9.91;100.00;95776.94;5047361;28;20041;-66
2023/10/31 00:21:19;;;;;;;1.27;0.50;;;;;;;9.83;100.00;95791.84;5045509;28;20102;-66
2023/10/31 00:23:47;;;;;;;2.35;0.65;;;;;;;9.83;100.00;95792.69;5046418;28;20041;-65
2023/10/31 00:26:15;;;;;;;3.92;1.00;;;;;;;9.85;100.00;95800.50;5056578;28;20052;-65
2023/10/31 00:28:48;;;;;;;1.27;0.50;;;;;;;9.77;100.00;95810.06;5046285;28;20743;-65
2023/10/31 00:31:14;;;;;;;3.00;0.73;;;;;;;9.74;100.00;95813.31;5053409;28;20063;-66
2023/10/31 00:33:41;;;;;;;2.25;1.00;;;;;;;9.81;100.00;95808.38;5045782;28;20045;-65
2023/10/31 00:36:08;;;;;;;1.98;0.93;;;;;;;9.76;100.00;95808.41;5043420;28;20056;-65
2023/10/31 00:38:34;;;;;;;1.60;0.32;;;;;;;9.74;100.00;95808.69;5044446;28;20051;-65
2023/10/31 00:41:01;;;;;;;2.90;0.70;;;;;;;9.76;100.00;95820.03;5042850;28;20041;-65
2023/10/31 00:43:28;;;;;;;4.50;1.10;;;;;;;9.75;100.00;95817.63;5039701;28;20045;-65
2023/10/31 00:45:54;;;;;;;4.57;0.90;;;;;;;9.72;100.00;95821.72;5044638;28;20048;-65
2023/10/31 00:48:21;;;;;;;2.88;0.50;;;;;;;9.63;100.00;95821.50;5045898;28;20052;-65
2023/10/31 00:50:47;;;;;;;1.85;0.40;;;;;;;9.52;100.00;95814.59;5042142;28;20408;-65
2023/10/31 00:53:15;;;;;;;1.48;0.40;;;;;;;9.57;100.00;95825.34;5040228;28;20041;-65
2023/10/31 00:55:41;;;;;;;1.13;0.57;;;;;;;9.55;100.00;95824.03;5047179;28;20052;-65
2023/10/31 00:58:08;;;;;;;2.00;0.50;;;;;;;9.47;100.00;95818.13;5043081;28;20416;-65
2023/10/31 01:00:37;;;;;;;1.75;0.40;;;;;;;9.50;100.00;95824.88;5042287;28;20029;-65
2023/10/31 01:03:03;;;;;;;2.70;0.93;;;;;;;9.47;100.00;95834.34;5038038;28;20067;-65
2023/10/31 01:05:30;;;;;;;3.47;0.80;;;;;;;9.42;100.00;95837.09;5044270;28;20056;-65
2023/10/31 01:07:56;;;;;;;2.92;0.60;;;;;;;9.34;100.00;95830.41;5043735;28;20039;-65
2023/10/31 01:10:23;;;;;;;2.25;0.70;;;;;;;9.45;100.00;95830.31;5043166;28;20045;-65
2023/10/31 01:12:50;;;;;;;2.58;0.70;;;;;;;9.29;100.00;95835.81;5034333;28;20052;-65
2023/10/31 01:15:16;;;;;;;2.22;0.57;;;;;;;9.36;100.00;95830.09;5038362;28;20504;-65
2023/10/31 01:17:43;;;;;;;2.50;0.50;;;;;;;9.22;100.00;95819.94;5045418;28;20045;-65
2023/10/31 01:20:10;;;;;;;1.25;0.30;;;;;;;9.18;100.00;95810.00;5035336;28;20683;-65
2023/10/31 01:22:37;;;;;;;5.45;0.85;;;;;;;9.21;100.00;95809.41;5042550;28;20044;-65
2023/10/31 01:25:04;;;;;;;0.60;0.43;;;;;;;9.05;100.00;95814.94;5038515;28;20028;-65
2023/10/31 01:27:31;;;;;;;0.73;0.50;;;;;;;8.95;100.00;95804.19;5044671;28;20045;-65
2023/10/31 01:29:57;;;;;;;1.90;0.60;;;;;;;8.90;100.00;95802.34;5043025;28;20537;-65
2023/10/31 01:32:24;;;;;;;1.48;0.40;;;;;;;8.82;100.00;95813.75;5038644;28;20069;-65
2023/10/31 01:34:50;;;;;;;0.82;0.40;;;;;;;8.70;100.00;95822.19;5052791;28;20041;-65
2023/10/31 01:37:19;;;;;;;1.65;0.70;;;;;;;8.75;100.00;95835.66;5045008;28;20065;-65
2023/10/31 01:39:46;;;;;;;2.65;0.40;;;;;;;8.79;100.00;95846.69;5040401;28;20550;-65
2023/10/31 01:42:17;;;;;;;2.40;0.40;;;;;;;8.64;100.00;95848.38;5034352;28;20072;-65
2023/10/31 01:44:45;;;;;;;3.30;0.50;;;;;;;8.76;100.00;95852.63;5037226;28;20029;-65
2023/10/31 01:47:11;;;;;;;2.20;0.43;;;;;;;8.71;100.00;95853.47;5031573;28;20069;-65
2023/10/31 01:49:38;;;;;;;1.30;0.50;;;;;;;8.74;100.00;95860.19;5040953;28;20047;-65
2023/10/31 01:52:06;;;;;;;4.97;0.60;;;;;;;8.67;100.00;95863.19;5034912;28;20680;-65
2023/10/31 01:54:34;;;;;;;2.03;0.43;;;;;;;8.65;100.00;95860.78;5026376;28;20544;-65
2023/10/31 01:57:02;;;;;;;3.45;0.68;;;;;;;8.67;100.00;95864.00;5035544;28;20045;-65
2023/10/31 01:59:29;;;;;;;1.63;0.55;;;;;;;8.69;100.00;95861.03;5036989;28;20503;-65
2023/10/31 02:01:57;;;;;;;1.08;0.43;;;;;;;8.71;100.00;95862.34;5034547;28;20043;-65
2023/10/31 02:04:24;;;;;;;3.78;0.45;;;;;;;8.73;100.00;95872.88;5051028;28;20127;-66
2023/10/31 02:06:50;;;;;;;3.30;0.38;;;;;;;8.90;100.00;95877.13;5040055;28;20057;-65
2023/10/31 02:09:18;;;;;;;0.65;0.38;;;;;;;8.82;100.00;95878.50;5058456;28;20060;-65
2023/10/31 02:11:45;;;;;;;0.82;0.32;;;;;;;8.79;100.00;95876.38;5033521;28;20069;-65
2023/10/31 02:14:11;;;;;;;0.52;0.35;;;;;;;8.82;100.00;95890.09;5030973;28;20044;-66
2023/10/31 02:16:38;;;;;;;0.43;0.30;;;;;;;8.81;100.00;95885.00;5035425;28;20500;-66
2023/10/31 02:19:06;;;;;;;1.05;0.50;;;;;;;8.86;100.00;95890.38;5029144;28;20037;-65
2023/10/31 02:21:32;;;;;;;1.75;0.45;;;;;;;8.95;100.00;95886.00;5037111;28;20037;-65
2023/10/31 02:24:01;;;;;;;3.60;0.55;;;;;;;8.80;100.00;95886.06;5042585;28;20473;-65
2023/10/31 02:26:32;;;;;;;0.73;0.40;;;;;;;8.81;100.00;95893.88;5039827;28;20686;-65
2023/10/31 02:28:59;;;;;;;0.68;0.30;;;;;;;8.81;100.00;95896.59;5041942;28;20044;-65
2023/10/31 02:31:26;;;;;;;1.85;0.60;;;;;;;8.84;100.00;95908.72;5044425;28;20068;-65
2023/10/31 02:33:53;;;;;;;2.42;0.43;;;;;;;8.93;100.00;95904.38;5041873;28;20045;-66
2023/10/31 02:36:20;;;;;;;2.50;0.82;;;;;;;8.92;100.00;95901.97;5042863;28;20045;-65
2023/10/31 02:38:47;;;;;;;0.63;0.55;;;;;;;8.97;100.00;95907.31;5042574;28;20047;-65
2023/10/31 02:41:14;;;;;;;2.83;0.38;;;;;;;8.91;100.00;95903.84;5042384;28;20033;-65
2023/10/31 02:43:41;;;;;;;2.92;0.57;;;;;;;8.90;100.00;95907.63;5039585;28;20527;-65
2023/10/31 02:46:07;;;;;;;1.75;0.40;;;;;;;8.91;100.00;95908.41;5054125;28;20041;-65
2023/10/31 02:48:39;;;;;;;2.50;0.50;;;;;;;8.84;100.00;95908.72;5037937;28;20041;-65
2023/10/31 02:51:09;;;;;;;1.42;0.40;;;;;;;9.03;100.00;95900.00;5042821;28;20622;-66
2023/10/31 02:53:36;;;;;;;0.50;0.20;;;;;;;9.00;100.00;95892.47;5029482;28;20492;-65
2023/10/31 02:56:03;;;;;;;1.73;0.30;;;;;;;9.04;100.00;95898.91;5041532;28;20037;-65
2023/10/31 02:58:31;;;;;;;1.83;0.40;;;;;;;9.08;100.00;95903.50;5043942;28;20455;-65
2023/10/31 03:00:57;;;;;;;1.10;0.30;;;;;;;8.98;100.00;95911.63;5041893;28;20037;-66
2023/10/31 03:03:24;;;;;;;0.80;0.35;;;;;;;8.78;100.00;95915.25;5040021;28;20070;-65
2023/10/31 03:05:51;;;;;;;1.10;0.40;;;;;;;8.69;100.00;95912.28;5038848;28;20474;-66
2023/10/31 03:08:20;;;;;;;1.67;0.30;;;;;;;8.61;100.00;95920.94;5044445;28;20041;-65
2023/10/31 03:10:49;;;;;;;0.95;0.50;;;;;;;8.58;100.00;95923.13;5040581;28;20095;-65
2023/10/31 03:13:17;;;;;;;3.85;0.60;;;;;;;8.57;100.00;95926.91;5041848;28;20037;-65
2023/10/31 03:15:45;;;;;;;1.15;0.45;;;;;;;8.66;100.00;95937.16;5042930;28;20107;-65
2023/10/31 03:18:14;;;;;;;1.67;0.75;;;;;;;8.62;100.00;95939.56;5040707;28;20543;-65
2023/10/31 03:20:44;;;;;;;1.67;0.40;;;;;;;8.62;100.00;95936.09;5039501;28;20025;-65
2023/10/31 03:23:11;;;;;;;1.13;0.50;;;;;;;8.55;100.00;95939.84;5041185;28;20037;-65
2023/10/31 03:25:38;;;;;;;1.90;0.57;;;;;;;8.59;100.00;95945.53;5043286;28;20041;-65
2023/10/31 03:28:18;;;;;;;1.00;0.20;;;;;;;8.64;100.00;95945.50;5043953;28;20516;-65
2023/10/31 03:30:47;;;;;;;0.65;0.40;;;;;;;8.75;100.00;95956.25;5048601;28;20033;-66
2023/10/31 03:33:14;;;;;;;0.40;0.20;;;;;;;8.82;100.00;95944.06;5040388;28;20065;-65
2023/10/31 03:35:41;;;;;;;2.28;0.43;;;;;;;8.75;100.00;95950.88;5045703;28;20033;-65
2023/10/31 03:38:08;;;;;;;1.67;0.63;;;;;;;8.83;100.00;95947.59;5046036;28;20732;-65
2023/10/31 03:40:34;;;;;;;2.53;0.35;;;;;;;8.92;100.00;95954.03;5045805;28;20033;-65
2023/10/31 03:43:01;;;;;;;1.60;0.50;;;;;;;8.86;100.00;95955.16;5043375;28;20122;-65
2023/10/31 03:45:29;;;;;;;1.10;0.43;;;;;;;8.84;100.00;95954.59;5044026;28;20629;-65
2023/10/31 03:47:55;;;;;;;1.73;0.35;;;;;;;8.77;100.00;95952.19;5046777;28;20067;-65
2023/10/31 03:50:22;;;;;;;1.70;0.40;;;;;;;8.79;100.00;95952.75;5046949;28;20041;-65
2023/10/31 03:52:48;;;;;;;0.57;0.30;;;;;;;8.85;100.00;95953.53;5041922;28;20059;-65
2023/10/31 03:55:15;;;;;;;1.08;0.40;;;;;;;8.95;100.00;95969.69;5044533;28;20037;-65
2023/10/31 03:57:42;;;;;;;1.98;0.30;;;;;;;8.98;100.00;95968.31;5040575;28;20077;-65
2023/10/31 04:00:09;;;;;;;2.40;0.30;;;;;;;8.98;100.00;95962.91;5043956;28;20436;-65
2023/10/31 04:02:44;;;;;;;1.30;0.55;;;;;;;8.98;100.00;95963.75;5044714;28;20079;-65
2023/10/31 04:05:11;;;;;;;0.98;0.30;;;;;;;8.83;100.00;95967.31;5044393;28;20039;-65
2023/10/31 04:07:38;;;;;;;2.88;0.47;;;;;;;8.87;100.00;95947.84;5044785;28;20568;-65
2023/10/31 04:10:05;;;;;;;1.35;0.40;;;;;;;8.83;100.00;95955.69;5046914;28;20121;-65
2023/10/31 04:12:32;;;;;;;1.30;0.40;;;;;;;8.91;100.00;95962.41;5044181;28;20127;-65
2023/10/31 04:14:59;;;;;;;2.97;0.50;;;;;;;8.97;100.00;95962.13;5045258;28;20040;-65
2023/10/31 04:17:25;;;;;;;2.60;0.35;;;;;;;8.92;100.00;95964.03;5042457;28;20120;-65
2023/10/31 04:19:52;;;;;;;0.20;0.20;;;;;;;8.72;100.00;95957.63;5037829;28;20043;-65
2023/10/31 04:22:19;;;;;;;0.88;0.20;;;;;;;8.74;100.00;95957.34;5042567;28;20044;-65
2023/10/31 04:24:46;;;;;;;0.73;0.20;;;;;;;8.78;100.00;95956.53;5044263;28;20043;-65
2023/10/31 04:27:12;;;;;;;1.30;0.40;;;;;;;8.54;100.00;95948.22;5044665;28;20049;-66
2023/10/31 04:29:39;;;;;;;1.90;0.30;;;;;;;8.63;100.00;95956.56;5044508;28;20653;-66
2023/10/31 04:32:06;;;;;;;2.65;0.70;;;;;;;8.54;100.00;95959.00;5042511;28;20076;-66
2023/10/31 04:34:33;;;;;;;4.50;0.50;;;;;;;8.52;100.00;95966.56;5043649;28;20041;-65
2023/10/31 04:36:59;;;;;;;0.77;0.35;;;;;;;8.47;100.00;95970.06;5042240;28;20060;-65
2023/10/31 04:39:26;;;;;;;1.75;0.47;;;;;;;8.53;100.00;95966.31;5046539;28;20064;-65
2023/10/31 04:41:52;;;;;;;0.70;0.20;;;;;;;8.58;100.00;95968.19;5042810;28;20048;-66
2023/10/31 04:44:19;;;;;;;3.25;0.32;;;;;;;8.57;100.00;95964.69;5042801;28;20037;-66
2023/10/31 04:46:45;;;;;;;0.47;0.30;;;;;;;8.57;100.00;95970.09;5049000;28;20617;-65
2023/10/31 04:49:12;;;;;;;0.57;0.20;;;;;;;8.54;100.00;95964.41;5043502;28;20063;-65
2023/10/31 04:51:39;;;;;;;1.92;0.40;;;;;;;8.56;100.00;95971.16;5045753;28;20061;-66
2023/10/31 04:54:06;;;;;;;0.98;0.47;;;;;;;8.56;100.00;95970.34;5039365;28;20041;-66
2023/10/31 04:56:33;;;;;;;1.30;0.40;;;;;;;8.49;100.00;95973.31;5043000;28;20120;-66
2023/10/31 04:59:00;;;;;;;3.92;0.60;;;;;;;8.31;100.00;95975.50;5045278;28;20045;-66
2023/10/31 05:01:26;;;;;;;1.83;0.50;;;;;;;8.38;100.00;95964.44;5044400;28;20033;-66
2023/10/31 05:03:53;;;;;;;0.57;0.30;;;;;;;8.35;100.00;95969.53;5041648;28;20435;-66
2023/10/31 05:06:32;;;;;;;1.27;0.68;;;;;;;8.39;100.00;95967.91;5056889;28;20073;-66
2023/10/31 05:08:59;;;;;;;0.95;0.40;;;;;;;8.35;100.00;95973.06;5040481;28;20041;-66
2023/10/31 05:11:26;;;;;;;0.60;0.30;;;;;;;8.36;100.00;95974.66;5037469;28;20599;-66
2023/10/31 05:13:53;;;;;;;0.70;0.35;;;;;;;8.37;100.00;95983.56;5038933;28;20048;-66
2023/10/31 05:16:19;;;;;;;0.90;0.50;;;;;;;8.39;100.00;95989.50;5043081;28;20441;-65
2023/10/31 05:18:46;;;;;;;1.45;0.50;;;;;;;8.26;100.00;95994.34;5043949;28;20103;-66
2023/10/31 05:21:18;;;;;;;1.35;0.60;;;;;;;8.22;100.00;95998.69;5042938;28;20116;-65
2023/10/31 05:23:45;;;;;;;1.35;0.45;;;;;;;8.12;100.00;96001.38;5040812;28;20729;-65
2023/10/31 05:26:12;;;;;;;0.30;0.22;;;;;;;8.03;100.00;95996.53;5044459;28;20061;-66
2023/10/31 05:28:38;;;;;;;1.10;0.30;;;;;;;8.05;100.00;96001.66;5044277;28;20076;-65
2023/10/31 05:31:05;;;;;;;2.20;0.25;;;;;;;8.01;100.00;96008.66;5042822;28;20025;-66
2023/10/31 05:33:31;;;;;;;1.80;0.50;;;;;;;8.01;100.00;96014.88;5043696;28;20033;-66
2023/10/31 05:35:58;;;;;;;2.70;0.50;;;;;;;7.98;100.00;96006.50;5043417;28;20032;-66
2023/10/31 05:38:25;;;;;;;0.85;0.40;;;;;;;7.91;100.00;96004.06;5044618;28;20065;-66
2023/10/31 05:40:51;;;;;;;1.35;0.40;;;;;;;7.86;100.00;96006.78;5040433;28;20041;-66
2023/10/31 05:43:18;;;;;;;0.95;0.30;;;;;;;7.82;100.00;96009.19;5046134;28;20041;-66
2023/10/31 05:45:45;;;;;;;0.50;0.30;;;;;;;7.85;100.00;96013.25;5043133;28;20036;-66
2023/10/31 05:48:14;;;;;;;0.68;0.30;;;;;;;7.90;100.00;96019.44;5043434;28;20196;-66
2023/10/31 05:50:42;;;;;;;0.55;0.30;;;;;;;7.92;100.00;96019.16;5042395;28;20036;-66
2023/10/31 05:53:08;;;;;;;2.55;0.30;;;;;;;7.92;100.00;96011.88;5043561;28;20107;-66
2023/10/31 05:55:39;;;;;;;2.75;0.40;;;;;;;7.93;100.00;96015.41;5045993;28;20500;-66
2023/10/31 05:58:05;;;;;;;2.08;0.60;;;;;;;8.02;100.00;96021.06;5040954;28;20045;-66
2023/10/31 06:00:32;;;;;;;0.28;0.20;;;;;;;8.26;100.00;96020.53;5041931;28;20025;-66
2023/10/31 06:02:59;;;;;;;0.95;0.30;;;;;;;8.34;100.00;96014.59;5039045;28;20032;-66
2023/10/31 06:05:25;;;;;;;0.22;0.22;;;;;;;8.29;100.00;96028.88;5040181;28;20504;-66
2023/10/31 06:07:52;;;;;;;1.30;0.38;;;;;;;8.48;100.00;96041.00;5038699;28;20512;-66
2023/10/31 06:10:19;;;;;;;0.55;0.30;;;;;;;8.48;100.00;96038.31;5040935;28;20040;-66
2023/10/31 06:12:45;;;;;;;3.70;0.95;;;;;;;8.52;100.00;96036.69;5041704;28;20041;-66
2023/10/31 06:15:12;;;;;;;0.77;0.40;;;;;;;8.41;100.00;96042.09;5042969;28;20052;-66
2023/10/31 06:17:39;;;;;;;0.90;0.22;;;;;;;8.36;100.00;96042.09;5041423;28;20033;-66
2023/10/31 06:20:09;;;;;;;1.10;0.50;;;;;;;8.39;100.00;96038.88;5041948;28;20500;-66
2023/10/31 06:22:36;;;;;;;0.73;0.30;;;;;;;8.35;100.00;96043.19;5041022;28;20060;-66
2023/10/31 06:25:03;;;;;;;2.03;0.38;;;;;;;8.53;100.00;96047.25;5038250;28;20107;-66
2023/10/31 06:27:29;;;;;;;0.32;0.25;;;;;;;8.47;100.00;96042.88;5042499;28;20055;-66
2023/10/31 06:29:56;;;;;;;0.30;0.20;;;;;;;8.40;100.00;96059.34;5038731;28;20045;-66
2023/10/31 06:32:42;;;;;;;0.73;0.30;;;;;;;8.34;100.00;96063.16;5040838;28;20073;-67
2023/10/31 06:35:09;;;;;;;1.63;0.65;;;;;;;8.36;100.00;96065.56;5045899;28;20055;-66
2023/10/31 06:37:36;;;;;;;1.58;0.52;;;;;;;8.35;100.00;96070.16;5047048;28;20461;-66
2023/10/31 06:40:04;;;;;;;1.02;0.30;;;;;;;8.36;100.00;96071.75;5038289;28;20060;-66
2023/10/31 06:42:30;;;;;;;3.85;0.68;;;;;;;8.44;100.00;96076.63;5040831;28;20095;-66
2023/10/31 06:44:57;;;;;;;2.45;0.52;;;;;;;8.49;100.00;96067.72;5043970;28;20040;-66
2023/10/31 06:47:24;;;;;;;1.27;0.57;;;;;;;8.49;100.00;96075.00;5042155;28;20037;-66
2023/10/31 06:49:50;;;;;;;1.40;0.40;;;;;;;8.47;100.00;96077.97;5044291;28;20064;-66
2023/10/31 06:52:17;;;;;;;1.92;0.45;;;;;;;8.46;100.00;96076.34;5030767;28;20037;-66
2023/10/31 06:54:43;;;;;;;1.00;0.32;;;;;;;8.53;100.00;96089.59;5042724;28;20045;-66
2023/10/31 06:57:10;;;;;;;1.50;0.40;;;;;;;8.58;100.00;96084.19;5041194;28;20128;-66
2023/10/31 06:59:37;;;;;;;2.47;1.00;;;;;;;8.66;100.00;96096.34;5039718;28;20053;-66
2023/10/31 07:02:03;;;;;;;2.38;0.70;;;;;;;8.67;100.00;96106.06;5044452;28;20470;-66
2023/10/31 07:04:30;;;;;;;1.67;0.38;;;;;;;8.64;100.00;96104.72;5044447;28;20057;-66
2023/10/31 07:06:57;;;;;;;1.05;0.30;;;;;;;8.71;100.00;96118.72;5023748;28;20084;-66
2023/10/31 07:09:25;;;;;;;0.98;0.30;;;;;;;8.72;100.00;96127.63;5039941;28;20118;-66
2023/10/31 07:11:52;;;;;;;0.95;0.30;;;;;;;8.59;100.00;96129.00;5042790;28;20064;-66
2023/10/31 07:14:19;;;;;;;5.50;0.60;;;;;;;8.58;100.00;96127.34;5041858;28;20377;-66
2023/10/31 07:16:45;;;;;;;1.95;0.45;;;;;;;8.66;100.00;96123.34;5047717;28;20065;-66
2023/10/31 07:19:12;;;;;;;1.67;0.70;;;;;;;8.83;100.00;96128.44;5044385;28;20710;-66
2023/10/31 07:21:39;;;;;;;1.35;0.55;;;;;;;8.93;100.00;96133.84;5045792;28;20037;-66
2023/10/31 07:24:08;;;;;;;0.82;0.40;;;;;;;8.88;100.00;96127.63;5046890;28;20041;-66
2023/10/31 07:26:35;;;;;;;0.85;0.50;;;;;;;8.93;100.00;96130.31;5053149;28;20485;-66
2023/10/31 07:29:02;;;;;;;1.08;0.45;;;;;;;8.79;100.00;96132.75;5046291;28;20041;-66
2023/10/31 07:31:28;;;;;;;3.17;0.85;;;;;;;9.00;100.00;96138.97;5046009;28;20039;-66
2023/10/31 07:33:56;;;;;;;1.10;0.40;;;;;;;9.11;100.00;96147.84;5047635;28;20048;-66
2023/10/31 07:36:22;;;;;;;1.63;0.50;;;;;;;9.20;100.00;96157.00;5045193;28;20041;-66
2023/10/31 07:38:49;;;;;;;1.92;0.50;;;;;;;9.32;100.00;96153.22;5048501;28;20041;-66
2023/10/31 07:41:15;;;;;;;1.95;0.50;;;;;;;9.23;100.00;96145.66;5043923;28;20469;-66
2023/10/31 07:43:42;;;;;;;2.35;0.65;;;;;;;9.31;100.00;96144.28;5050830;28;20043;-66
2023/10/31 07:46:09;;;;;;;1.50;0.38;;;;;;;9.50;100.00;96147.22;5047870;28;20506;-66
2023/10/31 07:48:35;;;;;;;0.98;0.55;;;;;;;9.39;100.00;96150.22;5046576;28;20041;-66
2023/10/31 07:51:02;;;;;;;2.70;0.80;;;;;;;9.24;100.00;96157.25;5045511;28;20032;-66
2023/10/31 07:53:28;;;;;;;1.27;0.98;;;;;;;9.20;100.00;96159.72;5043206;28;20040;-66
2023/10/31 07:55:55;;;;;;;1.58;0.40;;;;;;;9.21;100.00;96157.81;5046579;28;20049;-66
2023/10/31 07:58:22;;;;;;;3.10;0.60;;;;;;;9.14;100.00;96166.19;5045439;28;20052;-66
2023/10/31 08:00:48;;;;;;;1.70;0.50;;;;;;;9.25;100.00;96166.97;5047084;28;20073;-66
2023/10/31 08:03:15;;;;;;;0.90;0.47;;;;;;;9.34;100.00;96164.53;5044728;28;20040;-66
2023/10/31 08:05:42;;;;;;;3.80;0.80;;;;;;;9.41;100.00;96175.88;5022625;28;20065;-66
2023/10/31 08:08:08;;;;;;;2.63;0.80;;;;;;;9.41;100.00;96175.88;5046425;28;20071;-66
2023/10/31 08:10:35;;;;;;;2.70;0.60;;;;;;;9.45;100.00;96176.13;5046396;28;20033;-66
2023/10/31 08:13:02;;;;;;;1.67;0.70;;;;;;;9.44;100.00;96180.72;5043952;28;20102;-66
2023/10/31 08:15:29;;;;;;;1.67;0.68;;;;;;;9.40;100.00;96176.94;5046754;28;20036;-65
2023/10/31 08:17:55;;;;;;;2.10;0.50;;;;;;;9.50;100.00;96182.34;5046629;28;20053;-66
2023/10/31 08:20:22;;;;;;;1.33;0.63;;;;;;;9.44;100.00;96186.13;5045518;28;20041;-66
2023/10/31 08:22:48;;;;;;;2.92;0.60;;;;;;;9.54;100.00;96187.19;5045383;28;20648;-66
2023/10/31 08:25:15;;;;;;;1.48;0.63;;;;;;;9.33;100.00;96192.66;5039795;28;20063;-66
2023/10/31 08:27:41;;;;;;;2.30;0.52;;;;;;;9.35;100.00;96195.88;5043843;28;20056;-65
2023/10/31 08:30:09;;;;;;;1.73;0.60;;;;;;;9.40;100.00;96198.56;5044368;28;20051;-66
2023/10/31 08:32:35;;;;;;;1.50;0.52;;;;;;;9.42;100.00;96193.69;5040598;28;20040;-66
2023/10/31 08:35:02;;;;;;;1.77;0.60;;;;;;;9.47;100.00;96193.69;5039344;28;20124;-65
2023/10/31 08:37:29;;;;;;;2.70;0.70;;;;;;;9.56;100.00;96204.75;5040048;28;20049;-65
2023/10/31 08:39:56;;;;;;;4.72;0.82;;;;;;;9.58;100.00;96197.16;5041994;28;20072;-66
2023/10/31 08:42:22;;;;;;;1.85;0.70;;;;;;;9.58;100.00;96207.97;5044287;28;20041;-65
2023/10/31 08:44:49;;;;;;;2.63;0.60;;;;;;;9.55;100.00;96205.81;5045771;28;20048;-65
2023/10/31 08:47:17;;;;;;;2.35;0.50;;;;;;;9.69;100.00;96205.25;5042497;28;20045;-65
2023/10/31 08:49:44;;;;;;;2.10;0.60;;;;;;;9.71;100.00;96211.19;5040913;28;20037;-66
2023/10/31 08:52:11;;;;;;;5.28;1.02;;;;;;;9.74;100.00;96218.75;5040133;28;20055;-66
2023/10/31 08:54:38;;;;;;;2.10;0.80;;;;;;;9.76;100.00;96217.41;5038926;28;20540;-65
2023/10/31 08:57:04;;;;;;;4.75;0.88;;;;;;;9.80;100.00;96228.47;5041313;28;20504;-65
2023/10/31 08:59:31;;;;;;;1.30;0.50;;;;;;;10.04;100.00;96221.63;5041322;28;20044;-65
2023/10/31 09:01:57;;;;;;;3.47;0.70;;;;;;;9.97;100.00;96221.91;5042313;28;20032;-65
2023/10/31 09:04:24;;;;;;;1.17;0.50;;;;;;;10.00;100.00;96221.38;5041196;28;20072;-65
2023/10/31 09:06:51;;;;;;;2.15;0.95;;;;;;;10.19;100.00;96231.56;5035561;28;20138;-66
2023/10/31 09:09:18;;;;;;;1.77;0.60;;;;;;;10.26;100.00;96219.38;5044630;28;20129;-66
2023/10/31 09:11:44;;;;;;;3.13;1.00;;;;;;;10.36;100.00;96213.06;5040450;28;20047;-65
2023/10/31 09:14:11;;;;;;;3.35;1.52;;;;;;;10.56;100.00;96227.63;5040122;28;20045;-65
2023/10/31 09:16:40;;;;;;;4.22;1.15;;;;;;;10.69;100.00;96217.25;5037554;28;20079;-66
2023/10/31 09:19:07;;;;;;;8.18;1.00;;;;;;;10.63;100.00;96216.47;5041930;28;20055;-66
2023/10/31 09:21:33;;;;;;;3.47;0.60;;;;;;;10.66;100.00;96224.03;5042987;28;20041;-66
2023/10/31 09:24:02;;;;;;;3.42;0.75;;;;;;;10.72;100.00;96222.91;5045060;28;20060;-65
2023/10/31 09:26:28;;;;;;;11.05;6.43;;;;;;;10.91;100.00;96216.84;5037171;28;20040;-65
2023/10/31 09:28:55;;;;;;;7.88;1.38;;;;;;;10.98;98.66;96213.81;5041740;28;20421;-65
2023/10/31 09:31:22;;;;;;;1.55;0.43;;;;;;;11.18;99.74;96223.66;5043800;28;20121;-65
2023/10/31 09:33:48;;;;;;;4.63;0.95;;;;;;;11.31;100.00;96222.16;5041673;28;20539;-66
2023/10/31 09:36:15;;;;;;;3.30;0.60;;;;;;;11.36;99.24;96213.19;5040602;28;20049;-65
2023/10/31 09:38:42;;;;;;;1.95;0.63;;;;;;;11.51;96.71;96229.31;5036627;28;20053;-65
2023/10/31 09:41:08;;;;;;;2.00;0.65;;;;;;;11.54;99.65;96220.59;5035380;28;20045;-65
2023/10/31 09:43:35;;;;;;;4.75;0.70;;;;;;;11.65;99.91;96229.44;5036957;28;20037;-65
2023/10/31 09:46:03;;;;;;;3.50;0.52;;;;;;;11.57;96.62;96230.06;5054893;28;20052;-66
2023/10/31 09:48:31;;;;;;;5.50;0.80;;;;;;;11.51;95.01;96237.44;5037798;28;20092;-65
2023/10/31 09:50:58;;;;;;;2.88;0.50;;;;;;;11.58;96.64;96235.19;5038592;28;20053;-66
2023/10/31 09:53:24;;;;;;;4.38;0.68;;;;;;;11.35;96.90;96230.56;5050033;28;20420;-67
2023/10/31 09:55:53;;;;;;;3.90;0.88;;;;;;;11.36;100.00;96224.03;5041118;28;20721;-66
2023/10/31 09:58:20;;;;;;;2.80;0.63;;;;;;;11.42;97.32;96225.59;5040274;28;20075;-72
2023/10/31 10:00:47;;;;;;;2.92;0.50;;;;;;;11.50;96.15;96230.41;5029484;28;20079;-65
2023/10/31 10:03:14;;;;;;;3.50;0.85;;;;;;;11.46;98.63;96223.94;5039749;28;20041;-66
2023/10/31 10:05:44;;;;;;;3.40;0.63;;;;;;;11.42;98.07;96234.53;5044200;28;20389;-66
2023/10/31 10:08:10;;;;;;;5.43;0.70;;;;;;;11.22;98.96;96234.72;5044289;28;20661;-66
2023/10/31 10:10:37;;;;;;;3.35;0.47;;;;;;;10.87;100.00;96224.69;5045591;28;20055;-66
2023/10/31 10:13:04;;;;;;;3.70;0.60;;;;;;;10.93;100.00;96222.75;5039667;28;20116;-67
2023/10/31 10:15:43;;;;;;;1.92;0.63;;;;;;;11.05;100.00;96231.34;5041486;28;20052;-68
2023/10/31 10:18:09;;;;;;;4.65;0.90;;;;;;;10.95;100.00;96226.00;5046482;28;20063;-67
2023/10/31 10:20:36;;;;;;;1.63;0.50;;;;;;;11.01;100.00;96229.47;5042384;28;20094;-67
2023/10/31 10:23:04;;;;;;;3.72;0.82;;;;;;;11.13;100.00;96231.81;5046875;28;20043;-64
2023/10/31 10:25:31;;;;;;;2.78;0.60;;;;;;;11.14;100.00;96236.97;5043151;28;20119;-64
2023/10/31 10:28:13;;;;;;;2.67;0.47;;;;;;;11.08;100.00;96235.38;5043798;28;20585;-64
2023/10/31 10:30:41;;;;;;;4.07;0.73;;;;;;;11.25;100.00;96236.88;5042421;28;20423;-63
2023/10/31 10:33:07;;;;;;;3.95;0.55;;;;;;;11.15;100.00;96241.28;5038679;28;20040;-64
2023/10/31 10:35:34;;;;;;;3.03;0.30;;;;;;;11.33;100.00;96238.97;5044848;28;20050;-64
2023/10/31 10:38:04;;;;;;;1.88;0.60;;;;;;;11.47;100.00;96241.00;5044650;28;21465;-64
2023/10/31 10:40:31;;;;;;;2.88;0.40;;;;;;;11.65;100.00;96242.97;5046733;28;20048;-63
2023/10/31 10:43:00;;;;;;;4.65;0.60;;;;;;;11.55;100.00;96237.69;5045575;28;20036;-63
2023/10/31 10:45:26;;;;;;;3.25;0.43;;;;;;;11.60;99.65;96242.25;5044829;28;20049;-65
2023/10/31 10:47:57;;;;;;;2.35;0.60;;;;;;;11.82;100.00;96237.13;5044936;28;20559;-65
2023/10/31 10:50:30;;;;;;;2.20;0.90;;;;;;;12.02;99.47;96242.63;5039580;28;20045;-68
2023/10/31 10:53:10;;;;;;;2.13;0.52;;;;;;;11.95;96.97;96246.47;5048155;28;20033;-65
2023/10/31 10:55:44;;;;;;;2.75;0.50;;;;;;;11.94;94.75;96249.50;5047018;28;20052;-64
2023/10/31 10:58:26;;;;;;;1.45;0.40;;;;;;;11.91;96.70;96239.22;5043234;28;20044;-65
2023/10/31 11:00:54;;;;;;;2.55;0.50;;;;;;;11.75;95.66;96241.28;5045371;28;20048;-66
2023/10/31 11:03:23;;;;;;;0.88;0.30;;;;;;;11.70;97.21;96234.81;5039779;28;20163;-67
2023/10/31 11:05:50;;;;;;;1.55;0.40;;;;;;;11.94;95.92;96241.34;5039907;28;20044;-66
2023/10/31 11:08:19;;;;;;;2.03;0.47;;;;;;;11.91;96.24;96244.63;5043333;28;20040;-66
2023/10/31 11:10:47;;;;;;;0.80;0.40;;;;;;;12.17;93.98;96230.78;5058133;28;20053;-66
2023/10/31 11:13:14;;;;;;;1.30;0.50;;;;;;;12.17;94.91;96228.09;5038768;28;20033;-66
2023/10/31 11:15:42;;;;;;;1.40;0.40;;;;;;;12.06;94.57;96240.97;5038799;28;20492;-66
2023/10/31 11:18:10;;;;;;;1.98;0.50;;;;;;;12.21;95.17;96234.53;5037694;28;20059;-66
2023/10/31 11:20:39;;;;;;;1.92;0.40;;;;;;;12.21;91.41;96238.06;5036408;28;20423;-66
2023/10/31 11:23:06;;;;;;;3.55;0.40;;;;;;;12.34;93.25;96230.28;5038048;28;20091;-66
2023/10/31 11:25:33;;;;;;;2.13;0.47;;;;;;;12.20;94.29;96241.88;5040849;28;20051;-66
2023/10/31 11:28:16;;;;;;;1.00;0.30;;;;;;;12.29;92.76;96239.34;5046190;28;20048;-67
2023/10/31 11:30:45;;;;;;;0.52;0.30;;;;;;;12.33;92.62;96244.97;5038509;28;20568;-66
2023/10/31 11:33:13;;;;;;;1.58;0.30;;;;;;;12.29;93.24;96247.47;5040139;28;20041;-66